Time;durP1;ratioP1;P1;durP2;ratioP2;P2;SDS_P1;SDS_P2;PMS_P1;PMS_P2;Temp;Humidity;BMP_temperature;BMP_pressure;BME280_temperature;BME280_humidity;BME280_pressure;Samples;Min_cycle;Max_cycle;Signal;HPM_P1;HPM_P2
2022/12/19 00:01:14;;;;;;;37.37;20.77;;;0.00;99.90;;;;;;5108753;27;20400;-74
2022/12/19 00:03:51;;;;;;;38.37;21.37;;;0.00;99.90;;;;;;5133008;27;20381;-74
2022/12/19 00:06:19;;;;;;;35.73;20.17;;;0.00;99.90;;;;;;5114269;27;20039;-73
2022/12/19 00:08:46;;;;;;;40.57;21.03;;;0.10;99.90;;;;;;5112825;27;20039;-73
2022/12/19 00:11:13;;;;;;;39.13;21.10;;;0.10;99.90;;;;;;5107877;27;20062;-73
2022/12/19 00:13:39;;;;;;;39.93;21.87;;;0.10;99.90;;;;;;5100623;27;20039;-74
2022/12/19 00:16:10;;;;;;;37.40;20.77;;;0.10;99.90;;;;;;5113011;27;20035;-74
2022/12/19 00:18:38;;;;;;;38.93;21.23;;;0.10;99.90;;;;;;5108607;27;20045;-74
2022/12/19 00:21:05;;;;;;;36.40;20.83;;;0.10;99.90;;;;;;5109269;27;20039;-75
2022/12/19 00:23:33;;;;;;;39.13;20.80;;;0.10;99.90;;;;;;5103459;27;20050;-74
2022/12/19 00:26:15;;;;;;;40.70;21.47;;;0.20;99.90;;;;;;5112580;27;20042;-74
2022/12/19 00:28:42;;;;;;;35.37;20.93;;;0.20;99.90;;;;;;5087256;27;20043;-75
2022/12/19 00:31:11;;;;;;;41.23;20.93;;;0.20;99.90;;;;;;5106458;27;20043;-76
2022/12/19 00:33:37;;;;;;;39.40;20.87;;;0.20;99.90;;;;;;5107010;27;20381;-76
2022/12/19 00:36:05;;;;;;;37.20;20.03;;;0.20;99.90;;;;;;5108274;28;20445;-77
2022/12/19 00:38:32;;;;;;;37.73;20.43;;;0.30;99.90;;;;;;5099732;27;20046;-76
2022/12/19 00:41:08;;;;;;;40.13;21.03;;;0.30;99.90;;;;;;5112517;27;20043;-77
2022/12/19 00:43:34;;;;;;;37.60;20.90;;;0.30;99.90;;;;;;5104141;27;20042;-77
2022/12/19 00:46:08;;;;;;;38.57;20.33;;;0.30;99.90;;;;;;5106511;27;20035;-76
2022/12/19 00:48:35;;;;;;;42.83;20.70;;;0.30;99.90;;;;;;5107962;27;20035;-77
2022/12/19 00:51:02;;;;;;;37.87;21.37;;;0.30;99.90;;;;;;5109233;27;20495;-78
2022/12/19 00:53:28;;;;;;;38.60;20.97;;;0.30;99.90;;;;;;5107458;27;20040;-77
2022/12/19 00:55:54;;;;;;;39.33;21.20;;;0.40;99.90;;;;;;5107801;27;20128;-77
2022/12/19 00:58:21;;;;;;;39.63;20.97;;;0.40;99.90;;;;;;5090184;27;20039;-77
2022/12/19 01:00:47;;;;;;;38.27;20.90;;;0.40;99.90;;;;;;5102452;28;20112;-78
2022/12/19 01:03:12;;;;;;;42.23;21.90;;;0.40;99.90;;;;;;5092162;27;20032;-80
2022/12/19 01:05:38;;;;;;;40.57;21.93;;;0.40;99.90;;;;;;5107240;27;20096;-79
2022/12/19 01:08:03;;;;;;;35.50;21.20;;;0.40;99.90;;;;;;5110780;27;20530;-79
2022/12/19 01:10:29;;;;;;;37.93;20.37;;;0.40;99.90;;;;;;5106559;27;20092;-80
2022/12/19 01:12:54;;;;;;;40.53;20.27;;;0.40;99.90;;;;;;5105959;27;20042;-80
2022/12/19 01:15:20;;;;;;;40.97;20.57;;;0.50;99.90;;;;;;5110108;27;20035;-80
2022/12/19 01:17:47;;;;;;;37.43;20.20;;;0.50;99.90;;;;;;5102613;27;20438;-81
2022/12/19 01:20:16;;;;;;;39.73;20.67;;;0.50;99.90;;;;;;5100826;27;20035;-82
2022/12/19 01:22:43;;;;;;;38.77;21.37;;;0.60;99.90;;;;;;5102565;27;20447;-84
2022/12/19 01:25:09;;;;;;;40.40;21.03;;;0.60;99.90;;;;;;5092177;27;20043;-83
2022/12/19 01:27:34;;;;;;;37.87;20.17;;;0.70;99.90;;;;;;5114123;27;20822;-83
2022/12/19 01:30:00;;;;;;;41.60;21.47;;;0.70;99.90;;;;;;5090078;28;20040;-83
2022/12/19 01:32:26;;;;;;;41.00;21.83;;;0.70;99.90;;;;;;5100857;27;20095;-82
2022/12/19 01:34:52;;;;;;;38.90;19.87;;;0.80;99.90;;;;;;5110794;27;20047;-80
2022/12/19 01:37:17;;;;;;;39.40;20.80;;;0.70;99.90;;;;;;5114133;27;20046;-82
2022/12/19 01:39:43;;;;;;;41.43;20.83;;;0.70;99.90;;;;;;5110641;27;20038;-83
2022/12/19 01:42:14;;;;;;;40.00;21.27;;;0.80;99.90;;;;;;5090135;27;20039;-82
2022/12/19 01:45:04;;;;;;;38.90;19.97;;;0.80;99.90;;;;;;5107489;27;20121;-82
2022/12/19 01:47:34;;;;;;;37.20;20.00;;;0.80;99.90;;;;;;5107230;27;20027;-82
2022/12/19 01:50:01;;;;;;;41.40;21.10;;;0.90;99.90;;;;;;5090848;28;20108;-82
2022/12/19 01:52:26;;;;;;;39.40;20.83;;;0.90;99.90;;;;;;5108366;27;20077;-82
2022/12/19 01:54:52;;;;;;;38.97;19.50;;;0.90;99.90;;;;;;5093267;27;20602;-84
2022/12/19 01:57:19;;;;;;;37.87;20.20;;;0.90;99.90;;;;;;5122530;27;20094;-81
2022/12/19 01:59:55;;;;;;;37.37;20.50;;;0.90;99.90;;;;;;5122074;27;20035;-81
2022/12/19 02:02:24;;;;;;;41.63;21.07;;;1.00;99.90;;;;;;5090801;27;20043;-82
2022/12/19 02:04:50;;;;;;;43.10;21.60;;;1.00;99.90;;;;;;5108463;27;20412;-81
2022/12/19 02:07:17;;;;;;;39.27;20.87;;;1.00;99.90;;;;;;5112149;27;20036;-78
2022/12/19 02:09:45;;;;;;;41.20;21.27;;;1.00;99.90;;;;;;5110362;27;20050;-79
2022/12/19 02:12:11;;;;;;;41.50;21.90;;;1.00;99.90;;;;;;5109040;27;20035;-79
2022/12/19 02:14:37;;;;;;;41.93;22.47;;;1.00;99.90;;;;;;5108255;27;20027;-79
2022/12/19 02:17:20;;;;;;;40.00;22.53;;;1.00;99.90;;;;;;5086288;27;20119;-79
2022/12/19 02:20:15;;;;;;;43.13;20.97;;;1.00;99.90;;;;;;5119142;27;20106;-79
2022/12/19 02:23:05;;;;;;;40.90;21.27;;;1.00;99.90;;;;;;5105795;27;20031;-79
2022/12/19 02:25:52;;;;;;;41.23;21.67;;;1.00;99.90;;;;;;5102638;27;20457;-79
2022/12/19 02:28:53;;;;;;;48.30;22.30;;;0.90;99.90;;;;;;5091520;27;20484;-80
2022/12/19 02:31:30;;;;;;;40.53;22.33;;;1.00;99.90;;;;;;5103961;27;20047;-80
2022/12/19 02:34:04;;;;;;;43.43;22.33;;;0.90;99.90;;;;;;5107715;27;20047;-79
2022/12/19 02:36:39;;;;;;;44.83;23.00;;;0.90;99.90;;;;;;5107920;27;20147;-79
2022/12/19 02:39:18;;;;;;;44.83;22.33;;;1.00;99.90;;;;;;5102774;27;20042;-79
2022/12/19 02:41:48;;;;;;;47.17;24.00;;;1.00;99.90;;;;;;5104729;28;20031;-80
2022/12/19 02:44:43;;;;;;;43.83;23.70;;;0.90;99.90;;;;;;5110164;27;20074;-79
2022/12/19 02:47:11;;;;;;;46.27;23.27;;;1.00;99.90;;;;;;5111926;27;20050;-80
2022/12/19 02:49:37;;;;;;;43.93;24.57;;;1.00;99.90;;;;;;5100198;27;20118;-80
2022/12/19 02:52:20;;;;;;;49.77;25.47;;;1.00;99.90;;;;;;5108300;27;20067;-80
2022/12/19 02:54:51;;;;;;;51.03;25.30;;;1.00;99.90;;;;;;5111231;27;20039;-80
2022/12/19 02:57:35;;;;;;;48.00;25.33;;;1.00;99.90;;;;;;5113191;28;20034;-80
2022/12/19 03:00:07;;;;;;;51.27;25.17;;;1.10;99.90;;;;;;5107745;28;20039;-80
2022/12/19 03:03:23;;;;;;;49.90;24.97;;;1.00;99.90;;;;;;5103444;27;20450;-80
2022/12/19 03:06:02;;;;;;;47.23;23.43;;;1.10;99.90;;;;;;5083134;28;20051;-81
2022/12/19 03:08:36;;;;;;;46.83;24.40;;;1.10;99.90;;;;;;5111689;27;20096;-81
2022/12/19 03:11:13;;;;;;;47.13;24.17;;;1.10;99.90;;;;;;5109476;28;20049;-81
2022/12/19 03:14:07;;;;;;;45.90;23.93;;;1.10;99.90;;;;;;5103732;27;20043;-81
2022/12/19 03:16:36;;;;;;;46.88;23.83;;;1.10;99.90;;;;;;5100053;28;20092;-81
2022/12/19 03:19:03;;;;;;;48.83;23.90;;;1.10;99.90;;;;;;5113373;27;20480;-80
2022/12/19 03:21:44;;;;;;;43.77;23.77;;;1.10;99.90;;;;;;5125228;27;20067;-80
2022/12/19 03:24:11;;;;;;;47.90;26.03;;;1.10;99.90;;;;;;5110242;28;20082;-80
2022/12/19 03:27:00;;;;;;;51.47;25.97;;;1.20;99.90;;;;;;5112762;28;20100;-80
2022/12/19 03:29:41;;;;;;;49.70;25.23;;;1.20;99.90;;;;;;5110505;28;20031;-80
2022/12/19 03:32:14;;;;;;;49.67;26.03;;;1.20;99.90;;;;;;5117272;28;20035;-80
2022/12/19 03:34:55;;;;;;;51.80;25.77;;;1.20;99.90;;;;;;5110585;28;20420;-80
2022/12/19 03:37:24;;;;;;;57.03;27.80;;;1.30;99.90;;;;;;5111966;28;20071;-80
2022/12/19 03:39:57;;;;;;;52.37;26.30;;;1.30;99.90;;;;;;5111888;28;20023;-81
2022/12/19 03:45:12;;;;;;;54.57;26.20;;;1.30;99.90;;;;;;5110897;28;20047;-80
2022/12/19 03:47:46;;;;;;;59.00;28.43;;;1.30;99.90;;;;;;5101554;28;20035;-79
2022/12/19 03:50:12;;;;;;;54.73;27.20;;;1.40;99.90;;;;;;5108782;28;20032;-80
2022/12/19 03:52:46;;;;;;;55.10;27.93;;;1.40;99.90;;;;;;5112822;28;20119;-80
2022/12/19 03:55:17;;;;;;;49.38;26.23;;;1.40;99.90;;;;;;5115156;28;20043;-80
2022/12/19 03:57:49;;;;;;;59.27;29.03;;;1.40;99.90;;;;;;5098964;28;20397;-80
2022/12/19 04:00:17;;;;;;;56.37;27.83;;;1.40;99.90;;;;;;5109883;28;20040;-80
2022/12/19 04:02:50;;;;;;;57.20;26.70;;;1.50;99.90;;;;;;5113472;28;20400;-81
2022/12/19 04:05:22;;;;;;;56.10;28.57;;;1.50;99.90;;;;;;5096461;28;20527;-81
2022/12/19 04:07:52;;;;;;;56.22;27.42;;;1.50;99.90;;;;;;5115983;28;20047;-80
2022/12/19 04:10:21;;;;;;;62.40;29.10;;;1.50;99.90;;;;;;5111867;28;20190;-80
2022/12/19 04:12:51;;;;;;;61.50;29.23;;;1.60;99.90;;;;;;5107573;28;20031;-80
2022/12/19 04:15:23;;;;;;;64.97;30.23;;;1.60;99.90;;;;;;5094237;28;20067;-80
2022/12/19 04:17:55;;;;;;;63.43;30.40;;;1.60;99.90;;;;;;5108034;28;20043;-80
2022/12/19 04:20:24;;;;;;;62.10;29.07;;;1.60;99.90;;;;;;5108438;28;20027;-80
2022/12/19 04:23:12;;;;;;;65.43;32.17;;;1.70;99.90;;;;;;5112791;27;20058;-80
2022/12/19 04:25:42;;;;;;;67.47;31.53;;;1.80;99.90;;;;;;5118769;27;20035;-81
2022/12/19 04:28:16;;;;;;;66.20;30.23;;;1.80;99.90;;;;;;5108724;27;20407;-80
2022/12/19 04:30:43;;;;;;;70.00;31.35;;;1.80;99.90;;;;;;5097916;27;20042;-80
2022/12/19 04:33:09;;;;;;;69.07;30.77;;;1.90;99.90;;;;;;5115140;27;21087;-80
2022/12/19 04:35:35;;;;;;;64.30;31.97;;;1.90;99.90;;;;;;5109025;27;20150;-81
2022/12/19 04:38:00;;;;;;;71.40;32.13;;;1.90;99.90;;;;;;5113141;28;20036;-80
2022/12/19 04:40:26;;;;;;;65.87;30.67;;;2.00;99.90;;;;;;5109846;27;20034;-80
2022/12/19 04:42:52;;;;;;;66.60;31.23;;;2.00;99.90;;;;;;5107247;28;20039;-80
2022/12/19 04:45:18;;;;;;;62.77;30.40;;;2.00;99.90;;;;;;5104976;27;20113;-80
2022/12/19 04:47:43;;;;;;;64.95;31.13;;;2.00;99.90;;;;;;5114181;27;20078;-81
2022/12/19 04:50:09;;;;;;;66.93;32.45;;;2.00;99.90;;;;;;5118048;27;20547;-81
2022/12/19 04:52:35;;;;;;;72.90;31.43;;;2.10;99.90;;;;;;5113218;27;20065;-82
2022/12/19 04:55:00;;;;;;;67.32;32.85;;;2.10;99.90;;;;;;5105760;28;20385;-81
2022/12/19 04:57:30;;;;;;;75.90;31.88;;;2.10;99.90;;;;;;5108247;27;20177;-80
2022/12/19 04:59:55;;;;;;;67.93;31.10;;;2.10;99.90;;;;;;5115331;27;20035;-81
2022/12/19 05:02:21;;;;;;;74.77;32.33;;;2.10;99.90;;;;;;5113529;27;20031;-82
2022/12/19 05:04:47;;;;;;;74.77;33.47;;;2.10;99.90;;;;;;5115063;27;20062;-82
2022/12/19 05:07:13;;;;;;;77.10;34.43;;;2.10;99.90;;;;;;5100547;27;20035;-82
2022/12/19 05:09:39;;;;;;;73.77;33.03;;;2.10;99.90;;;;;;5115027;27;20061;-81
2022/12/19 05:12:05;;;;;;;63.30;31.90;;;2.20;99.90;;;;;;5116107;27;20035;-80
2022/12/19 05:14:31;;;;;;;76.25;33.10;;;2.30;99.90;;;;;;5113656;27;20394;-82
2022/12/19 05:16:57;;;;;;;64.27;31.30;;;2.30;99.90;;;;;;5105588;28;20098;-82
2022/12/19 05:19:22;;;;;;;66.83;30.77;;;2.30;99.90;;;;;;5118311;27;20408;-80
2022/12/19 05:21:48;;;;;;;68.18;30.92;;;2.20;99.90;;;;;;5111712;27;20031;-81
2022/12/19 05:24:15;;;;;;;63.45;30.77;;;2.30;99.90;;;;;;5106138;27;20039;-82
2022/12/19 05:26:40;;;;;;;65.67;30.83;;;2.30;99.90;;;;;;5106604;27;20046;-80
2022/12/19 05:29:07;;;;;;;67.63;30.47;;;2.30;99.90;;;;;;5101661;27;20386;-82
2022/12/19 05:31:32;;;;;;;63.80;31.17;;;2.30;99.90;;;;;;5089708;27;20061;-81
2022/12/19 05:33:58;;;;;;;58.13;29.08;;;2.30;99.90;;;;;;5112764;27;20039;-81
2022/12/19 05:36:23;;;;;;;58.85;28.85;;;2.30;99.90;;;;;;5113033;27;20039;-83
2022/12/19 05:38:49;;;;;;;62.08;28.55;;;2.40;99.90;;;;;;5115398;27;20042;-80
2022/12/19 05:41:17;;;;;;;57.35;29.27;;;2.40;99.90;;;;;;5092525;27;20073;-80
2022/12/19 05:43:44;;;;;;;65.20;30.00;;;2.40;99.90;;;;;;5111103;27;20404;-80
2022/12/19 05:46:11;;;;;;;59.63;28.87;;;2.40;99.90;;;;;;5117338;27;20527;-81
2022/12/19 05:48:36;;;;;;;53.88;27.90;;;2.40;99.90;;;;;;5112597;27;20040;-81
2022/12/19 05:51:02;;;;;;;55.55;28.02;;;2.50;99.90;;;;;;5109940;28;20043;-80
2022/12/19 05:53:28;;;;;;;55.80;28.60;;;2.50;99.90;;;;;;5113334;27;20045;-81
2022/12/19 05:56:09;;;;;;;58.17;27.45;;;2.60;99.90;;;;;;5110328;27;20066;-79
2022/12/19 05:58:35;;;;;;;54.67;26.52;;;2.90;99.90;;;;;;5101908;27;20035;-80
2022/12/19 06:01:07;;;;;;;54.08;27.08;;;2.70;99.90;;;;;;5090047;27;20031;-80
2022/12/19 06:03:32;;;;;;;56.78;27.67;;;2.70;99.90;;;;;;5105068;27;20031;-80
2022/12/19 06:06:05;;;;;;;52.40;25.65;;;2.70;99.90;;;;;;5115954;27;20039;-79
2022/12/19 06:08:31;;;;;;;50.50;25.40;;;2.70;99.90;;;;;;5113902;27;20031;-80
2022/12/19 06:11:02;;;;;;;49.40;25.33;;;2.80;99.90;;;;;;5104534;28;20031;-80
2022/12/19 06:13:29;;;;;;;58.25;26.10;;;2.80;99.90;;;;;;5108842;27;20157;-81
2022/12/19 06:16:03;;;;;;;48.25;23.73;;;2.70;99.90;;;;;;5082131;28;20088;-80
2022/12/19 06:18:29;;;;;;;46.35;23.35;;;2.80;99.90;;;;;;5089332;27;20631;-79
2022/12/19 06:21:00;;;;;;;48.00;24.05;;;2.80;99.90;;;;;;5110768;27;20627;-80
2022/12/19 06:23:26;;;;;;;48.38;23.42;;;2.80;99.90;;;;;;5107514;27;20046;-80
2022/12/19 06:25:54;;;;;;;46.35;24.73;;;2.80;99.90;;;;;;5092838;28;20051;-80
2022/12/19 06:28:20;;;;;;;42.65;22.88;;;2.90;99.90;;;;;;5106603;27;20068;-79
2022/12/19 06:30:45;;;;;;;49.78;23.55;;;2.90;99.90;;;;;;5104197;28;20545;-80
2022/12/19 06:33:11;;;;;;;43.35;23.20;;;2.90;99.90;;;;;;5111841;27;20039;-79
2022/12/19 06:35:37;;;;;;;44.58;22.50;;;3.00;99.90;;;;;;5104787;27;20031;-80
2022/12/19 06:38:02;;;;;;;42.80;22.02;;;3.10;99.90;;;;;;5103787;28;20122;-79
2022/12/19 06:43:12;;;;;;;38.85;19.70;;;3.20;99.90;;;;;;5110085;27;20072;-80
2022/12/19 06:45:37;;;;;;;39.50;20.05;;;3.30;99.90;;;;;;5111320;27;20091;-81
2022/12/19 06:48:03;;;;;;;39.42;19.30;;;3.30;99.90;;;;;;5093327;27;20035;-80
2022/12/19 06:50:28;;;;;;;37.95;18.98;;;3.30;99.90;;;;;;5132812;27;20472;-80
2022/12/19 06:52:54;;;;;;;38.90;19.08;;;3.40;99.90;;;;;;5103386;27;20034;-79
2022/12/19 06:55:19;;;;;;;35.60;19.00;;;3.40;99.90;;;;;;5109184;27;20046;-79
2022/12/19 06:57:45;;;;;;;35.47;20.38;;;3.40;99.90;;;;;;5108496;27;20039;-80
2022/12/19 07:00:14;;;;;;;35.60;18.92;;;3.40;99.90;;;;;;5105603;27;20039;-80
2022/12/19 07:02:44;;;;;;;42.70;20.25;;;3.50;99.90;;;;;;5100420;27;20031;-79
2022/12/19 07:05:11;;;;;;;38.88;18.77;;;3.50;99.90;;;;;;5108087;27;20108;-79
2022/12/19 07:07:37;;;;;;;36.08;19.50;;;3.50;99.90;;;;;;5102659;28;20048;-78
2022/12/19 07:10:04;;;;;;;35.67;18.98;;;3.50;99.90;;;;;;5100577;27;20062;-79
2022/12/19 07:12:30;;;;;;;36.80;18.85;;;3.50;99.90;;;;;;5110531;27;20046;-79
2022/12/19 07:14:55;;;;;;;34.65;18.65;;;3.50;99.90;;;;;;5107576;27;20035;-80
2022/12/19 07:17:23;;;;;;;35.22;18.70;;;3.50;99.90;;;;;;5106861;28;20031;-79
2022/12/19 07:19:49;;;;;;;31.45;17.60;;;3.50;99.90;;;;;;5107389;28;20031;-79
2022/12/19 07:22:14;;;;;;;36.65;19.95;;;3.50;99.90;;;;;;5098907;28;20038;-81
2022/12/19 07:24:40;;;;;;;38.05;18.92;;;3.60;99.90;;;;;;5106497;28;20043;-79
2022/12/19 07:27:08;;;;;;;35.67;18.90;;;3.60;99.90;;;;;;5111749;28;20050;-79
2022/12/19 07:29:33;;;;;;;33.22;19.02;;;3.60;99.90;;;;;;5107301;28;20142;-79
2022/12/19 07:31:59;;;;;;;31.30;17.50;;;3.60;99.90;;;;;;5097659;28;20116;-78
2022/12/19 07:34:24;;;;;;;36.50;18.65;;;3.60;99.90;;;;;;5098278;28;20515;-79
2022/12/19 07:36:50;;;;;;;34.97;19.17;;;3.60;99.90;;;;;;5106919;28;20536;-79
2022/12/19 07:39:15;;;;;;;32.88;18.15;;;3.60;99.90;;;;;;5108732;28;20123;-80
2022/12/19 07:41:41;;;;;;;32.58;17.17;;;3.60;99.90;;;;;;5106947;28;20039;-79
2022/12/19 07:44:07;;;;;;;33.80;17.42;;;3.60;99.90;;;;;;5105677;28;20408;-80
2022/12/19 07:46:33;;;;;;;26.55;15.82;;;3.70;99.90;;;;;;5107276;28;20453;-79
2022/12/19 07:48:58;;;;;;;31.08;16.92;;;3.60;99.90;;;;;;5106923;28;20097;-79
2022/12/19 07:51:24;;;;;;;36.50;17.33;;;3.70;99.90;;;;;;5108550;28;20408;-78
2022/12/19 07:53:49;;;;;;;32.72;16.65;;;3.70;99.90;;;;;;5092267;28;20102;-79
2022/12/19 07:56:16;;;;;;;33.58;17.45;;;3.80;99.90;;;;;;5095488;28;20070;-80
2022/12/19 07:58:43;;;;;;;33.03;18.23;;;3.80;99.90;;;;;;5109019;27;20454;-81
2022/12/19 08:01:09;;;;;;;32.75;17.17;;;3.80;99.90;;;;;;5116579;27;20043;-80
2022/12/19 08:03:34;;;;;;;31.45;16.83;;;3.80;99.90;;;;;;5107372;28;20035;-80
2022/12/19 08:06:02;;;;;;;30.30;17.10;;;3.80;99.90;;;;;;5112067;27;20050;-79
2022/12/19 08:08:29;;;;;;;33.92;17.80;;;3.90;99.90;;;;;;5117323;27;20027;-80
2022/12/19 08:10:55;;;;;;;33.55;16.88;;;3.90;99.90;;;;;;5097949;28;20043;-79
2022/12/19 08:13:20;;;;;;;35.05;17.02;;;3.90;99.90;;;;;;5106897;27;20378;-80
2022/12/19 08:15:46;;;;;;;32.47;17.63;;;3.90;99.90;;;;;;5110675;28;20035;-79
2022/12/19 08:18:11;;;;;;;33.95;18.33;;;4.00;99.90;;;;;;5098423;27;20042;-80
2022/12/19 08:20:37;;;;;;;33.15;17.23;;;4.10;99.90;;;;;;5101179;27;20027;-80
2022/12/19 08:23:02;;;;;;;33.15;17.27;;;4.10;99.90;;;;;;5116634;27;20442;-80
2022/12/19 08:25:28;;;;;;;30.58;16.42;;;4.10;99.90;;;;;;5100334;27;20039;-81
2022/12/19 08:27:53;;;;;;;33.30;17.27;;;4.10;99.90;;;;;;5107506;27;20070;-81
2022/12/19 08:30:19;;;;;;;31.02;17.13;;;4.20;99.90;;;;;;5119832;27;20078;-80
2022/12/19 08:32:44;;;;;;;34.67;17.30;;;4.20;99.90;;;;;;5114421;27;20046;-80
2022/12/19 08:35:10;;;;;;;31.10;16.95;;;4.20;99.90;;;;;;5111481;27;20058;-80
2022/12/19 08:37:35;;;;;;;28.08;16.15;;;4.20;99.90;;;;;;5109361;27;20500;-79
2022/12/19 08:40:01;;;;;;;30.42;16.67;;;4.20;99.90;;;;;;5107635;27;20042;-83
2022/12/19 08:42:26;;;;;;;30.15;16.98;;;4.40;99.90;;;;;;5105650;27;20164;-80
2022/12/19 08:44:52;;;;;;;30.08;15.73;;;4.40;99.90;;;;;;5106302;27;20091;-80
2022/12/19 08:47:17;;;;;;;29.58;16.45;;;4.40;99.90;;;;;;5099219;27;20133;-81
2022/12/19 08:49:43;;;;;;;26.58;16.17;;;4.40;99.90;;;;;;5111600;27;20068;-80
2022/12/19 08:52:09;;;;;;;27.85;15.25;;;4.50;99.90;;;;;;5114354;27;20039;-81
2022/12/19 08:54:34;;;;;;;29.23;16.67;;;4.50;99.90;;;;;;5115497;27;20435;-81
2022/12/19 08:57:00;;;;;;;33.05;17.23;;;4.50;99.90;;;;;;5108664;27;20046;-80
2022/12/19 08:59:25;;;;;;;27.65;15.93;;;4.50;99.90;;;;;;5117624;27;20031;-82
2022/12/19 09:01:51;;;;;;;29.95;17.58;;;4.60;99.90;;;;;;5097862;27;21993;-81
2022/12/19 09:04:16;;;;;;;29.90;16.77;;;4.60;99.90;;;;;;5112020;27;20061;-81
2022/12/19 09:06:42;;;;;;;29.20;16.63;;;4.70;99.90;;;;;;5108439;27;20046;-81
2022/12/19 09:09:08;;;;;;;30.80;16.98;;;4.70;99.90;;;;;;5103041;27;20382;-80
2022/12/19 09:11:33;;;;;;;33.40;18.10;;;4.70;99.90;;;;;;5103259;27;20050;-80
2022/12/19 09:13:59;;;;;;;32.65;16.95;;;4.70;99.90;;;;;;5102423;27;20035;-80
2022/12/19 09:16:26;;;;;;;30.50;17.25;;;4.80;99.90;;;;;;5101764;27;20039;-80
2022/12/19 09:18:54;;;;;;;32.35;17.75;;;4.80;99.90;;;;;;5099670;28;20111;-80
2022/12/19 09:21:22;;;;;;;32.38;16.88;;;5.00;99.90;;;;;;5116388;27;20064;-80
2022/12/19 09:23:53;;;;;;;32.00;17.80;;;4.90;99.90;;;;;;5109177;27;20031;-80
2022/12/19 09:26:21;;;;;;;34.20;18.40;;;5.00;99.90;;;;;;5112536;27;20592;-81
2022/12/19 09:28:47;;;;;;;32.42;18.02;;;5.00;99.90;;;;;;5107338;28;20040;-80
2022/12/19 09:31:18;;;;;;;31.88;18.08;;;5.00;99.90;;;;;;5114314;27;20109;-79
2022/12/19 09:33:45;;;;;;;30.42;17.73;;;5.10;99.90;;;;;;5115966;27;20512;-79
2022/12/19 09:36:22;;;;;;;33.95;19.48;;;5.20;99.90;;;;;;5092214;28;20046;-80
2022/12/19 09:38:48;;;;;;;34.03;18.23;;;5.30;99.90;;;;;;5079625;27;20040;-80
2022/12/19 09:41:38;;;;;;;35.10;19.45;;;5.40;99.90;;;;;;5111509;27;20031;-80
2022/12/19 09:44:23;;;;;;;34.83;20.60;;;5.40;99.90;;;;;;5118166;27;20088;-79
2022/12/19 09:47:01;;;;;;;35.97;20.58;;;5.50;99.90;;;;;;5099895;28;20042;-79
2022/12/19 09:49:34;;;;;;;37.88;20.45;;;5.60;99.90;;;;;;5112899;27;20058;-79
2022/12/19 09:52:23;;;;;;;35.13;21.20;;;5.60;99.90;;;;;;5109250;27;20476;-81
2022/12/19 09:55:05;;;;;;;34.35;19.30;;;5.70;99.90;;;;;;5109339;27;20540;-81
2022/12/19 09:57:51;;;;;;;33.97;19.92;;;5.70;99.90;;;;;;5108810;27;20161;-80
2022/12/19 10:00:19;;;;;;;38.67;21.67;;;5.80;99.90;;;;;;5100889;27;20517;-81
2022/12/19 10:03:02;;;;;;;35.92;20.40;;;6.20;99.90;;;;;;5111978;27;20057;-80
2022/12/19 10:05:38;;;;;;;35.47;20.85;;;5.90;99.90;;;;;;5098045;27;20054;-80
2022/12/19 10:08:24;;;;;;;36.03;20.95;;;5.90;99.90;;;;;;5108910;27;20031;-79
2022/12/19 10:11:06;;;;;;;36.83;21.17;;;6.00;99.90;;;;;;5112785;27;20415;-79
2022/12/19 10:13:56;;;;;;;36.85;20.50;;;6.00;99.90;;;;;;5088396;27;20508;-82
2022/12/19 10:16:35;;;;;;;36.40;20.75;;;6.00;99.90;;;;;;5104194;27;20034;-81
2022/12/19 10:19:07;;;;;;;34.65;19.98;;;6.10;99.90;;;;;;5116215;27;20541;-79
2022/12/19 10:21:41;;;;;;;39.15;21.40;;;6.10;99.90;;;;;;5110907;27;20035;-79
2022/12/19 10:24:20;;;;;;;37.03;20.38;;;6.30;99.90;;;;;;5107521;27;20074;-81
2022/12/19 10:26:49;;;;;;;38.47;20.75;;;6.20;99.90;;;;;;5102685;27;20052;-81
2022/12/19 10:29:21;;;;;;;30.00;18.63;;;6.30;99.90;;;;;;5106672;27;20408;-81
2022/12/19 10:31:53;;;;;;;34.92;19.70;;;6.20;99.90;;;;;;5092928;27;20130;-81
2022/12/19 10:34:22;;;;;;;32.88;19.73;;;6.30;99.90;;;;;;5097270;27;20089;-82
2022/12/19 10:36:56;;;;;;;33.35;19.50;;;6.40;99.90;;;;;;5112602;27;20035;-82
2022/12/19 10:39:31;;;;;;;31.60;19.30;;;6.40;99.90;;;;;;5108591;27;20437;-82
2022/12/19 10:42:08;;;;;;;35.92;20.20;;;6.40;99.90;;;;;;5091119;28;20043;-82
2022/12/19 10:44:38;;;;;;;34.92;20.50;;;6.50;99.90;;;;;;5082866;28;20120;-83
2022/12/19 10:47:04;;;;;;;33.80;19.35;;;6.60;99.90;;;;;;5098062;28;20039;-82
2022/12/19 10:49:29;;;;;;;34.45;20.23;;;6.60;99.90;;;;;;5081668;27;20181;-81
2022/12/19 10:51:59;;;;;;;34.20;19.15;;;6.60;99.90;;;;;;5108655;27;20043;-84
2022/12/19 10:54:47;;;;;;;32.25;19.05;;;6.60;99.90;;;;;;5114087;27;20147;-81
2022/12/19 10:57:24;;;;;;;32.03;18.10;;;6.60;99.90;;;;;;5109175;27;20093;-82
2022/12/19 11:00:02;;;;;;;31.50;18.95;;;6.70;99.90;;;;;;5109694;27;20070;-81
2022/12/19 11:02:37;;;;;;;29.20;17.45;;;6.70;99.90;;;;;;5113547;27;20031;-82
2022/12/19 11:05:21;;;;;;;27.50;17.35;;;6.80;99.90;;;;;;5110006;27;20035;-82
2022/12/19 11:07:58;;;;;;;27.92;18.35;;;6.80;99.90;;;;;;5105217;27;20039;-80
2022/12/19 11:10:43;;;;;;;27.23;17.10;;;6.90;99.90;;;;;;5108578;27;20035;-81
2022/12/19 11:13:28;;;;;;;29.08;17.80;;;6.80;99.90;;;;;;5102540;27;20043;-80
2022/12/19 11:15:59;;;;;;;30.30;17.60;;;6.90;99.90;;;;;;5111961;27;20053;-80
2022/12/19 11:18:38;;;;;;;27.02;17.55;;;7.00;99.90;;;;;;5103730;28;20043;-80
2022/12/19 11:21:25;;;;;;;31.02;18.33;;;7.00;99.90;;;;;;5107208;27;20040;-81
2022/12/19 11:23:55;;;;;;;29.08;17.35;;;7.10;99.90;;;;;;5107132;28;20425;-82
2022/12/19 11:26:39;;;;;;;30.15;18.17;;;7.10;99.90;;;;;;5086160;28;20043;-82
2022/12/19 11:29:23;;;;;;;29.35;17.52;;;7.20;99.90;;;;;;5106708;28;20403;-82
2022/12/19 11:31:55;;;;;;;30.35;17.45;;;7.20;99.90;;;;;;5103359;28;20035;-80
2022/12/19 11:34:23;;;;;;;27.00;17.17;;;7.20;99.90;;;;;;5114780;28;20411;-80
2022/12/19 11:37:10;;;;;;;28.08;17.70;;;7.20;99.90;;;;;;5112105;28;20084;-79
2022/12/19 11:39:49;;;;;;;31.98;19.10;;;7.30;99.90;;;;;;5085111;28;20043;-82
2022/12/19 11:42:32;;;;;;;29.85;18.27;;;7.30;99.90;;;;;;5100643;28;20052;-81
2022/12/19 11:45:29;;;;;;;30.30;18.50;;;7.30;99.90;;;;;;5115493;28;20446;-81
2022/12/19 11:48:22;;;;;;;25.90;16.67;;;7.50;99.90;;;;;;5094702;27;20412;-81
2022/12/19 11:51:13;;;;;;;31.65;17.48;;;7.50;99.90;;;;;;5117460;28;20493;-82
2022/12/19 11:54:23;;;;;;;25.10;17.20;;;7.50;99.90;;;;;;5099276;28;20427;-83
2022/12/19 11:56:49;;;;;;;26.48;17.05;;;7.50;99.90;;;;;;5103911;28;20545;-82
2022/12/19 11:59:24;;;;;;;28.25;17.33;;;7.50;99.90;;;;;;5088468;28;20035;-82
2022/12/19 12:02:11;;;;;;;25.75;16.65;;;7.60;99.90;;;;;;5078875;28;20124;-81
2022/12/19 12:04:51;;;;;;;25.40;16.42;;;7.50;99.90;;;;;;5104535;28;20488;-82
2022/12/19 12:07:17;;;;;;;25.00;15.88;;;7.60;99.90;;;;;;5113690;28;20032;-81
2022/12/19 12:09:54;;;;;;;24.92;16.30;;;7.60;99.90;;;;;;5094057;28;20042;-82
2022/12/19 12:12:31;;;;;;;22.45;15.15;;;7.60;99.90;;;;;;5110417;28;20494;-81
2022/12/19 12:15:26;;;;;;;21.90;15.68;;;7.60;99.90;;;;;;5105291;28;20047;-81
2022/12/19 12:17:51;;;;;;;;;;;7.70;99.90;;;;;;5116957;27;20080;-82
2022/12/19 12:20:24;;;;;;;21.30;14.20;;;7.70;99.90;;;;;;5096644;28;19915;-82
2022/12/19 12:22:55;;;;;;;23.25;14.98;;;7.70;99.90;;;;;;5111266;28;20040;-83
2022/12/19 12:25:44;;;;;;;22.60;15.70;;;7.80;99.90;;;;;;5104586;28;20476;-83
2022/12/19 12:28:36;;;;;;;21.95;15.32;;;7.90;99.90;;;;;;5108197;28;20173;-80
2022/12/19 12:31:29;;;;;;;23.92;16.80;;;7.80;99.90;;;;;;5102344;28;20047;-81
2022/12/19 12:34:22;;;;;;;24.10;14.63;;;7.80;99.90;;;;;;5111462;28;20047;-81
2022/12/19 12:36:52;;;;;;;21.75;14.85;;;7.80;99.90;;;;;;5108017;28;20104;-81
2022/12/19 12:39:26;;;;;;;23.02;15.75;;;7.80;99.90;;;;;;5109639;28;20055;-82
2022/12/19 12:42:15;;;;;;;22.77;14.90;;;7.80;99.90;;;;;;5095925;28;20032;-82
2022/12/19 12:44:43;;;;;;;20.98;14.88;;;7.80;99.90;;;;;;5101949;27;20035;-80
2022/12/19 12:47:16;;;;;;;21.42;15.88;;;7.90;99.90;;;;;;5107028;27;20769;-82
2022/12/19 12:50:04;;;;;;;23.02;15.43;;;7.90;99.90;;;;;;5120334;27;20098;-83
2022/12/19 12:52:52;;;;;;;22.67;14.60;;;7.90;99.90;;;;;;5120091;27;20148;-82
2022/12/19 12:55:23;;;;;;;20.95;14.93;;;7.90;99.90;;;;;;5111726;28;20065;-80
2022/12/19 12:57:49;;;;;;;21.48;14.50;;;7.90;99.90;;;;;;5099112;28;20048;-81
2022/12/19 13:00:15;;;;;;;23.50;14.45;;;7.90;99.90;;;;;;5099423;28;20497;-82
2022/12/19 13:02:46;;;;;;;19.88;14.80;;;7.90;99.90;;;;;;5099371;28;20043;-81
2022/12/19 13:05:31;;;;;;;20.95;14.55;;;8.00;99.90;;;;;;5099603;28;20122;-82